Time;durP1;ratioP1;P1;durP2;ratioP2;P2;SDS_P1;SDS_P2;PMS_P1;PMS_P2;Temp;Humidity;BMP_temperature;BMP_pressure;BME280_temperature;BME280_humidity;BME280_pressure;Samples;Min_cycle;Max_cycle;Signal;HPM_P1;HPM_P2
2022/03/15 00:00:22;;;;;;;;;9.00;7.00;;;;;13.86;50.10;101905.03;2121915;27;47400;-62
2022/03/15 00:01:23;;;;;;;;;7.75;7.75;;;;;13.87;50.11;101910.34;2130034;27;47491;-61
2022/03/15 00:02:23;;;;;;;;;7.67;7.33;;;;;13.86;50.20;101905.91;2122736;27;47507;-60
2022/03/15 00:03:24;;;;;;;;;6.00;6.00;;;;;13.86;50.01;101897.91;2121925;27;47314;-60
2022/03/15 00:04:24;;;;;;;;;6.00;6.00;;;;;13.87;50.10;101901.44;2125126;27;47443;-59
2022/03/15 00:05:25;;;;;;;;;6.33;6.00;;;;;13.86;50.10;101897.91;2121673;27;47515;-60
2022/03/15 00:06:26;;;;;;;;;8.33;8.00;;;;;13.87;50.12;101898.78;2124841;27;47704;-61
2022/03/15 00:07:27;;;;;;;;;9.33;9.33;;;;;13.86;50.13;101897.91;2112614;27;47449;-61
2022/03/15 00:08:29;;;;;;;;;10.50;8.50;;;;;13.87;50.15;101902.34;2116449;27;47589;-61
2022/03/15 00:09:29;;;;;;;;;7.75;7.75;;;;;13.87;50.05;101896.13;2121808;27;47487;-60
2022/03/15 00:10:29;;;;;;;;;8.00;7.67;;;;;13.86;50.01;101895.22;2124925;27;47950;-62
2022/03/15 00:11:30;;;;;;;;;6.00;6.00;;;;;13.88;50.13;101896.09;2125933;27;48188;-60
2022/03/15 00:12:31;;;;;;;;;7.50;6.25;;;;;13.88;50.03;101898.75;2126359;27;47489;-61
2022/03/15 00:13:38;;;;;;;;;8.00;8.00;;;;;13.89;50.01;101900.50;2121578;27;48012;-60
2022/03/15 00:14:38;;;;;;;;;9.50;8.00;;;;;13.89;49.77;101895.19;2124246;27;47584;-60
2022/03/15 00:15:41;;;;;;;;;10.00;9.00;;;;;13.89;50.01;101891.63;2126845;27;48049;-61
2022/03/15 00:16:42;;;;;;;;;6.75;6.75;;;;;13.88;50.11;101893.41;2111207;27;47905;-61
2022/03/15 00:17:44;;;;;;;;;7.00;7.00;;;;;13.88;50.19;101890.75;2105303;27;47910;-61
2022/03/15 00:18:46;;;;;;;;;8.25;8.00;;;;;13.88;50.18;101888.09;2125188;27;47865;-60
2022/03/15 00:19:46;;;;;;;;;7.25;7.25;;;;;13.89;50.08;101888.97;2095201;28;47293;-59
2022/03/15 00:20:47;;;;;;;;;10.33;7.00;;;;;13.87;50.07;101888.09;2102033;27;47569;-60
2022/03/15 00:21:47;;;;;;;;;9.00;8.50;;;;;13.86;50.08;101889.03;2128324;27;47861;-61
2022/03/15 00:22:49;;;;;;;;;7.67;7.67;;;;;13.86;50.28;101886.34;2107864;27;48200;-61
2022/03/15 00:23:49;;;;;;;;;9.25;9.25;;;;;13.84;50.39;101884.56;2110559;27;47488;-61
2022/03/15 00:24:51;;;;;;;;;10.00;10.00;;;;;13.85;50.06;101890.81;2122686;27;47581;-61
2022/03/15 00:25:53;;;;;;;;;11.00;11.00;;;;;13.85;50.12;101888.13;2121724;27;47543;-61
2022/03/15 00:26:54;;;;;;;;;9.00;8.00;;;;;13.84;50.11;101881.88;2123509;27;48124;-62
2022/03/15 00:27:55;;;;;;;;;10.25;9.75;;;;;13.82;50.04;101878.38;2122256;27;47384;-61
2022/03/15 00:28:56;;;;;;;;;7.50;7.50;;;;;13.82;50.29;101875.69;2121472;27;47765;-60
2022/03/15 00:29:56;;;;;;;;;9.00;7.67;;;;;13.81;50.18;101881.94;2122150;27;47313;-61
2022/03/15 00:30:57;;;;;;;;;7.00;5.33;;;;;13.82;50.19;101880.16;2129182;27;48443;-60
2022/03/15 00:31:57;;;;;;;;;8.25;8.00;;;;;13.82;50.05;101880.16;2126203;27;47603;-60
2022/03/15 00:32:58;;;;;;;;;7.50;7.50;;;;;13.80;50.23;101873.97;2122576;27;47082;-61
2022/03/15 00:33:58;;;;;;;;;10.00;7.67;;;;;13.79;50.18;101870.44;2113046;27;48072;-60
2022/03/15 00:34:59;;;;;;;;;11.00;8.33;;;;;13.78;50.16;101870.47;2113375;27;47286;-59
2022/03/15 00:36:00;;;;;;;;;6.75;6.75;;;;;13.77;50.16;101882.91;2122846;27;47565;-60
2022/03/15 00:37:00;;;;;;;;;9.00;8.00;;;;;13.75;50.32;101882.06;2129383;27;47323;-59
2022/03/15 00:38:01;;;;;;;;;9.00;8.00;;;;;13.74;50.33;101880.31;2126199;27;47590;-61
2022/03/15 00:39:01;;;;;;;;;5.00;5.00;;;;;13.73;50.35;101875.00;2121711;27;48125;-57
2022/03/15 00:40:04;;;;;;;;;11.33;9.67;;;;;13.73;50.19;101877.66;2124544;27;47589;-61
2022/03/15 00:41:04;;;;;;;;;9.25;6.50;;;;;13.73;50.59;101881.22;2122918;27;47507;-62
2022/03/15 00:42:05;;;;;;;;;7.00;7.00;;;;;13.72;50.43;101879.47;2122072;27;47885;-60
2022/03/15 00:43:06;;;;;;;;;10.00;9.00;;;;;13.73;50.64;101877.66;2107525;27;47401;-61
2022/03/15 00:44:07;;;;;;;;;8.25;7.00;;;;;13.71;50.68;101880.31;2106811;27;47499;-61
2022/03/15 00:45:07;;;;;;;;;7.67;7.67;;;;;13.72;50.44;101873.22;2122721;27;45862;-61
2022/03/15 00:46:09;;;;;;;;;7.00;7.00;;;;;13.71;50.45;101879.44;2121843;27;48182;-62
2022/03/15 00:47:10;;;;;;;;;9.00;8.50;;;;;13.71;50.63;101874.13;2124890;27;47402;-59
2022/03/15 00:48:11;;;;;;;;;8.75;8.75;;;;;13.72;50.48;101874.13;2122242;27;47493;-62
2022/03/15 00:49:11;;;;;;;;;7.50;6.75;;;;;13.73;50.47;101875.00;2122361;27;47822;-62
2022/03/15 00:50:12;;;;;;;;;6.67;6.67;;;;;13.72;50.58;101876.78;2122147;27;48002;-61
2022/03/15 00:51:12;;;;;;;;;6.67;6.67;;;;;13.72;50.65;101868.78;2121460;27;47305;-62
2022/03/15 00:52:13;;;;;;;;;6.67;6.67;;;;;13.72;50.60;101874.13;2123232;27;47897;-61
2022/03/15 00:53:13;;;;;;;;;7.33;7.33;;;;;13.72;50.54;101866.13;2122431;27;47431;-61
2022/03/15 00:54:14;;;;;;;;;9.00;8.00;;;;;13.72;50.61;101866.13;2122158;27;47452;-60
2022/03/15 00:55:14;;;;;;;;;6.00;5.67;;;;;13.72;50.46;101866.13;2122383;27;47494;-60
2022/03/15 00:56:15;;;;;;;;;12.00;7.67;;;;;13.72;50.67;101871.44;2124914;27;47502;-60
2022/03/15 00:57:15;;;;;;;;;8.00;8.00;;;;;13.72;50.60;101865.19;2121631;27;47579;-60
2022/03/15 00:58:16;;;;;;;;;7.67;6.67;;;;;13.72;50.77;101866.13;2125678;27;47769;-60
2022/03/15 00:59:17;;;;;;;;;9.33;7.33;;;;;13.73;50.61;101861.66;2124109;27;47781;-62
2022/03/15 01:00:19;;;;;;;;;7.25;7.25;;;;;13.72;50.63;101857.19;2122018;27;47588;-60
2022/03/15 01:01:19;;;;;;;;;9.00;9.00;;;;;13.72;50.65;101851.88;2121584;27;47939;-61
2022/03/15 01:02:20;;;;;;;;;8.67;7.00;;;;;13.71;50.59;101853.66;2122364;27;47465;-60
2022/03/15 01:03:20;;;;;;;;;8.33;7.33;;;;;13.71;50.63;101848.31;2121636;27;47400;-61
2022/03/15 01:04:21;;;;;;;;;7.00;7.00;;;;;13.72;50.61;101849.19;2124716;27;47053;-60
2022/03/15 01:05:21;;;;;;;;;8.33;8.33;;;;;13.72;50.59;101846.53;2112437;27;47218;-61
2022/03/15 01:06:22;;;;;;;;;10.67;9.33;;;;;13.71;50.54;101848.31;2115461;27;47279;-59
2022/03/15 01:07:22;;;;;;;;;6.33;6.33;;;;;13.73;50.56;101848.31;2130253;27;47892;-61
2022/03/15 01:08:22;;;;;;;;;8.00;8.00;;;;;13.73;50.44;101849.19;2126620;27;47233;-61
2022/03/15 01:09:23;;;;;;;;;8.00;8.00;;;;;13.73;50.77;101842.97;2121652;27;46444;-61
2022/03/15 01:10:23;;;;;;;;;7.67;7.67;;;;;13.73;50.53;101849.19;2124970;27;47550;-61
2022/03/15 01:11:24;;;;;;;;;11.00;8.00;;;;;13.73;50.65;101854.53;2121349;27;47230;-60
2022/03/15 01:12:24;;;;;;;;;6.00;6.00;;;;;13.73;50.56;101857.22;2124879;27;47965;-62
2022/03/15 01:13:25;;;;;;;;;6.33;6.33;;;;;13.74;50.48;101850.09;2122776;27;47619;-61
2022/03/15 01:14:27;;;;;;;;;7.00;6.00;;;;;13.73;50.33;101849.19;2124405;27;47667;-60
2022/03/15 01:15:29;;;;;;;;;7.75;7.75;;;;;13.73;50.56;101845.66;2121410;27;47678;-62
2022/03/15 01:16:29;;;;;;;;;7.50;7.50;;;;;13.74;50.48;101850.09;2124441;27;47828;-60
2022/03/15 01:17:30;;;;;;;;;6.33;4.67;;;;;13.72;50.41;101844.78;2121541;27;47539;-61
2022/03/15 01:18:31;;;;;;;;;7.00;7.00;;;;;13.72;50.21;101844.78;2121902;27;48191;-61
2022/03/15 01:19:31;;;;;;;;;7.00;7.00;;;;;13.71;50.52;101842.09;2121463;27;48238;-62
2022/03/15 01:20:32;;;;;;;;;6.00;6.00;;;;;13.70;50.49;101846.56;2124756;27;47695;-62
2022/03/15 01:21:34;;;;;;;;;6.67;6.67;;;;;13.71;50.53;101837.66;2121315;27;47559;-62
2022/03/15 01:22:35;;;;;;;;;8.00;8.00;;;;;13.72;50.54;101835.84;2122432;27;48204;-63
2022/03/15 01:23:35;;;;;;;;;6.00;6.00;;;;;13.71;50.49;101834.97;2121412;27;47388;-62
2022/03/15 01:24:36;;;;;;;;;7.00;7.00;;;;;13.71;50.38;101840.31;2124990;27;46652;-62
2022/03/15 01:25:37;;;;;;;;;6.33;5.67;;;;;13.72;50.57;101835.84;2121042;27;46044;-61
2022/03/15 01:26:37;;;;;;;;;6.75;6.25;;;;;13.72;50.63;101827.84;2127580;27;47992;-61
2022/03/15 01:27:38;;;;;;;;;6.00;6.00;;;;;13.71;50.52;101829.63;2128698;27;47516;-60
2022/03/15 01:28:38;;;;;;;;;7.67;7.67;;;;;13.72;50.54;101830.53;2125971;27;47407;-61
2022/03/15 01:29:39;;;;;;;;;7.33;7.33;;;;;13.71;50.63;101824.31;2123580;27;47422;-61
2022/03/15 01:30:39;;;;;;;;;6.00;6.00;;;;;13.72;50.45;101833.19;2123220;27;47808;-61
2022/03/15 01:31:40;;;;;;;;;7.00;7.00;;;;;13.72;50.61;101827.84;2120617;27;47464;-60
2022/03/15 01:32:40;;;;;;;;;8.33;6.67;;;;;13.72;50.60;101826.09;2123011;27;47618;-58
2022/03/15 01:33:40;;;;;;;;;5.00;5.00;;;;;13.72;50.45;101827.84;2120786;27;47633;-61
2022/03/15 01:34:41;;;;;;;;;6.33;6.33;;;;;13.73;50.72;101822.53;2118399;27;47967;-63
2022/03/15 01:35:41;;;;;;;;;4.67;4.67;;;;;13.73;50.68;101821.66;2119257;27;47904;-59
2022/03/15 01:36:42;;;;;;;;;11.00;9.00;;;;;13.74;50.70;101823.41;2124668;27;47509;-62
2022/03/15 01:37:43;;;;;;;;;6.00;5.75;;;;;13.73;51.00;101819.84;2125500;27;47864;-61
2022/03/15 01:38:43;;;;;;;;;6.00;6.00;;;;;13.73;51.17;101819.84;2125854;27;47615;-61
2022/03/15 01:39:44;;;;;;;;;8.67;7.33;;;;;13.74;50.72;101823.41;2121212;27;48006;-61
2022/03/15 01:40:45;;;;;;;;;7.00;7.00;;;;;13.75;50.35;101809.16;2122604;27;47042;-62
2022/03/15 01:41:45;;;;;;;;;7.00;7.00;;;;;13.75;51.08;101811.81;2120616;27;47519;-62
2022/03/15 01:42:46;;;;;;;;;7.33;7.33;;;;;13.75;51.14;101815.38;2121405;27;47755;-61
2022/03/15 01:43:47;;;;;;;;;8.00;7.33;;;;;13.75;50.84;101812.69;2121618;27;47823;-61
2022/03/15 01:44:49;;;;;;;;;7.00;7.00;;;;;13.75;50.96;101814.50;2124924;27;47306;-62
2022/03/15 01:45:49;;;;;;;;;7.00;6.00;;;;;13.75;50.91;101815.38;2121941;27;47701;-60
2022/03/15 01:46:50;;;;;;;;;8.00;8.00;;;;;13.75;51.08;101812.69;2120871;27;47486;-61
2022/03/15 01:47:51;;;;;;;;;5.75;5.75;;;;;13.74;51.30;101810.94;2121126;27;47680;-60
2022/03/15 01:48:51;;;;;;;;;7.00;7.00;;;;;13.75;51.23;101803.81;2125780;27;47442;-60
2022/03/15 01:49:52;;;;;;;;;6.00;6.00;;;;;13.74;51.17;101802.94;2121683;27;48375;-61
2022/03/15 01:50:52;;;;;;;;;8.33;7.33;;;;;13.73;51.17;101806.50;2122016;27;47355;-60
2022/03/15 01:51:53;;;;;;;;;6.00;6.00;;;;;13.72;51.28;101799.41;2120986;27;47569;-61
2022/03/15 01:52:53;;;;;;;;;7.33;6.67;;;;;13.72;51.28;101796.75;2122943;27;47913;-59
2022/03/15 01:53:53;;;;;;;;;6.00;6.00;;;;;13.73;51.32;101806.50;2121807;27;47707;-61
2022/03/15 01:54:55;;;;;;;;;7.67;5.67;;;;;13.73;51.56;101792.28;2098518;28;47940;-62
2022/03/15 01:55:55;;;;;;;;;6.50;6.00;;;;;13.73;51.45;101798.50;2092667;28;47319;-61
2022/03/15 01:56:55;;;;;;;;;7.33;6.00;;;;;13.73;51.54;101786.97;2108988;27;47152;-62
2022/03/15 01:57:57;;;;;;;;;7.33;6.33;;;;;13.73;51.59;101789.63;2123259;27;47532;-61
2022/03/15 01:58:57;;;;;;;;;7.00;6.50;;;;;13.72;51.67;101788.75;2125885;27;47664;-61
2022/03/15 01:59:58;;;;;;;;;6.00;6.00;;;;;13.71;51.68;101781.63;2127434;27;47919;-61
2022/03/15 02:01:00;;;;;;;;;7.00;7.00;;;;;13.73;51.53;101785.19;2123219;27;47250;-62
2022/03/15 02:02:00;;;;;;;;;5.75;5.75;;;;;13.73;51.73;101782.50;2122449;27;46884;-61
2022/03/15 02:03:03;;;;;;;;;6.33;6.33;;;;;13.73;51.94;101782.50;2128510;27;48110;-60
2022/03/15 02:04:05;;;;;;;;;6.50;6.50;;;;;13.72;51.93;101783.41;2127519;27;47492;-62
2022/03/15 02:05:05;;;;;;;;;7.00;5.75;;;;;13.72;52.10;101777.16;2128491;27;47768;-59
2022/03/15 02:06:06;;;;;;;;;9.33;7.33;;;;;13.70;52.13;101773.66;2094074;28;47026;-62
2022/03/15 02:07:11;;;;;;;;;5.25;5.25;;;;;13.68;52.31;101781.69;2092873;28;48065;-61
2022/03/15 02:08:16;;;;;;;;;6.00;6.00;;;;;13.67;52.93;101768.38;2123879;27;47906;-61
2022/03/15 02:09:17;;;;;;;;;7.00;6.50;;;;;13.68;52.56;101770.13;2124053;27;47532;-61
2022/03/15 02:10:17;;;;;;;;;6.00;6.00;;;;;13.66;52.54;101767.50;2102755;27;47575;-62
2022/03/15 02:11:17;;;;;;;;;7.00;7.00;;;;;13.67;52.64;101771.94;2103257;27;48246;-60
2022/03/15 02:12:18;;;;;;;;;5.00;5.00;;;;;13.67;52.74;101765.72;2121490;27;47915;-62
2022/03/15 02:13:18;;;;;;;;;7.00;7.00;;;;;13.66;52.72;101770.16;2121196;27;47380;-62
2022/03/15 02:14:19;;;;;;;;;7.00;7.00;;;;;13.66;52.74;101771.97;2124663;27;47844;-62
2022/03/15 02:15:20;;;;;;;;;6.00;6.00;;;;;13.66;52.92;101769.28;2120429;27;47871;-62
2022/03/15 02:16:20;;;;;;;;;6.33;6.33;;;;;13.66;52.96;101766.63;2116080;27;47785;-59
2022/03/15 02:17:20;;;;;;;;;7.00;6.33;;;;;13.65;53.24;101764.88;2121449;27;48301;-60
2022/03/15 02:18:25;;;;;;;;;7.33;7.33;;;;;13.66;53.03;101771.97;2125004;27;47458;-63
2022/03/15 02:19:27;;;;;;;;;8.00;8.00;;;;;13.67;53.05;101763.03;2123216;27;48218;-62
2022/03/15 02:20:28;;;;;;;;;6.00;6.00;;;;;13.66;52.96;101762.16;2123243;27;47299;-62
2022/03/15 02:21:29;;;;;;;;;9.00;8.00;;;;;13.68;53.13;101768.34;2121083;27;47552;-62
2022/03/15 02:22:30;;;;;;;;;7.00;7.00;;;;;13.68;53.24;101757.69;2124247;27;47821;-62
2022/03/15 02:23:30;;;;;;;;;7.00;7.00;;;;;13.69;53.37;101758.56;2121104;27;47875;-61
2022/03/15 02:24:31;;;;;;;;;6.33;6.33;;;;;13.70;53.15;101757.66;2125737;27;47601;-62
2022/03/15 02:25:31;;;;;;;;;8.00;6.67;;;;;13.70;52.93;101760.31;2129696;27;46801;-61
2022/03/15 02:26:32;;;;;;;;;9.00;7.00;;;;;13.71;53.50;101759.41;2124546;27;47690;-61
2022/03/15 02:27:32;;;;;;;;;5.67;5.67;;;;;13.71;53.53;101762.06;2116482;27;47988;-61
2022/03/15 02:28:33;;;;;;;;;9.00;9.00;;;;;13.70;53.51;101758.53;2119029;27;47898;-60
2022/03/15 02:29:33;;;;;;;;;7.67;7.67;;;;;13.72;53.42;101751.41;2123159;27;48078;-61
2022/03/15 02:30:34;;;;;;;;;7.00;7.00;;;;;13.73;53.51;101755.81;2124251;27;47835;-61
2022/03/15 02:31:35;;;;;;;;;7.50;7.00;;;;;13.74;53.53;101756.72;2120937;27;47839;-61
2022/03/15 02:32:35;;;;;;;;;5.67;5.67;;;;;13.74;53.81;101744.25;2126593;27;48204;-60
2022/03/15 02:33:36;;;;;;;;;7.67;7.00;;;;;13.74;53.63;101743.38;2129291;27;47655;-59
2022/03/15 02:34:36;;;;;;;;;5.33;5.33;;;;;13.72;53.76;101743.41;2122247;27;47959;-62
2022/03/15 02:35:36;;;;;;;;;7.67;7.33;;;;;13.73;53.83;101733.59;2124198;27;47665;-62
2022/03/15 02:36:38;;;;;;;;;6.33;6.00;;;;;13.73;53.73;101742.50;2103274;27;48140;-62
2022/03/15 02:37:38;;;;;;;;;7.00;6.75;;;;;13.74;53.82;101738.03;2108546;27;47666;-58
2022/03/15 02:38:38;;;;;;;;;7.33;6.33;;;;;13.74;53.76;101736.25;2122421;27;47595;-61
2022/03/15 02:39:39;;;;;;;;;9.00;8.00;;;;;13.75;54.01;101734.44;2111677;27;47732;-60
2022/03/15 02:40:39;;;;;;;;;6.00;5.67;;;;;13.76;53.91;101733.53;2118203;27;47497;-62
2022/03/15 02:41:40;;;;;;;;;7.00;7.00;;;;;13.77;54.12;101729.97;2128376;27;48047;-61
2022/03/15 02:42:40;;;;;;;;;6.00;6.00;;;;;13.78;54.01;101731.72;2124968;27;47605;-63
2022/03/15 02:43:43;;;;;;;;;7.00;7.00;;;;;13.77;54.01;101728.19;2120588;27;47763;-62
2022/03/15 02:44:44;;;;;;;;;8.00;8.00;;;;;13.77;54.19;101733.50;2124541;27;46035;-59
2022/03/15 02:45:44;;;;;;;;;10.00;8.50;;;;;13.78;54.12;101732.59;2121729;27;47625;-61
2022/03/15 02:46:49;;;;;;;;;6.00;5.33;;;;;13.78;54.24;101729.06;2122879;27;47444;-60
2022/03/15 02:47:50;;;;;;;;;6.75;6.75;;;;;13.78;54.20;101732.59;2120918;27;47664;-63
2022/03/15 02:48:50;;;;;;;;;6.00;6.00;;;;;13.79;54.22;101728.13;2120961;27;47720;-61
2022/03/15 02:49:50;;;;;;;;;7.00;7.00;;;;;13.79;54.20;101728.13;2113037;27;47260;-62
2022/03/15 02:50:51;;;;;;;;;6.33;6.33;;;;;13.79;54.13;101726.34;2116568;27;47931;-63
2022/03/15 02:51:51;;;;;;;;;5.67;5.67;;;;;13.81;54.31;101731.66;2120855;27;46853;-61
2022/03/15 02:52:52;;;;;;;;;8.00;8.00;;;;;13.81;54.68;101729.00;2127698;27;47748;-62
2022/03/15 02:53:53;;;;;;;;;8.00;7.33;;;;;13.80;54.70;101728.09;2129283;27;46519;-62
2022/03/15 02:54:53;;;;;;;;;8.75;8.75;;;;;13.79;54.98;101734.34;2129424;27;47731;-61
2022/03/15 02:55:53;;;;;;;;;8.00;6.33;;;;;13.78;54.73;101724.59;2129481;27;46211;-60
2022/03/15 02:56:54;;;;;;;;;6.00;6.00;;;;;13.78;54.64;101713.03;2129481;27;48092;-63
2022/03/15 02:57:55;;;;;;;;;7.33;7.33;;;;;13.78;54.67;101727.25;2129656;27;47185;-62
2022/03/15 02:58:55;;;;;;;;;7.67;7.67;;;;;13.78;55.04;101723.72;2100413;28;47612;-61
2022/03/15 02:59:56;;;;;;;;;6.33;6.33;;;;;13.77;55.22;101717.50;2103017;28;46490;-62
2022/03/15 03:00:56;;;;;;;;;5.00;5.00;;;;;13.78;55.12;101715.72;2129407;27;47885;-61
2022/03/15 03:01:57;;;;;;;;;7.00;7.00;;;;;13.79;54.98;101714.81;2128526;27;48085;-63
2022/03/15 03:02:57;;;;;;;;;5.67;5.67;;;;;13.78;55.34;101715.72;2111037;27;47874;-59
2022/03/15 03:03:58;;;;;;;;;8.00;8.00;;;;;13.77;55.24;101714.84;2111161;27;47875;-60
2022/03/15 03:04:59;;;;;;;;;8.75;8.75;;;;;13.76;55.52;101709.53;2121569;27;48240;-61
2022/03/15 03:06:00;;;;;;;;;7.00;7.00;;;;;13.75;55.50;101707.78;2129467;27;47604;-62
2022/03/15 03:07:03;;;;;;;;;7.25;7.25;;;;;13.75;55.54;101707.78;2125045;27;47954;-60
2022/03/15 03:08:04;;;;;;;;;6.00;6.00;;;;;13.74;55.64;101704.22;2120971;27;47417;-61
2022/03/15 03:09:05;;;;;;;;;8.50;8.50;;;;;13.76;55.78;101706.88;2120703;27;47668;-60
2022/03/15 03:10:06;;;;;;;;;11.00;7.67;;;;;13.76;55.78;101710.41;2120777;27;47279;-62
2022/03/15 03:11:06;;;;;;;;;9.67;9.00;;;;;13.76;55.77;101706.88;2093864;28;47463;-61
2022/03/15 03:12:08;;;;;;;;;6.00;6.00;;;;;13.77;55.90;101705.97;2100353;28;47519;-59
2022/03/15 03:13:09;;;;;;;;;8.00;7.00;;;;;13.77;55.85;101711.28;2129187;27;47950;-61
2022/03/15 03:14:13;;;;;;;;;7.75;7.50;;;;;13.77;56.05;101700.63;2125363;27;47785;-60
2022/03/15 03:15:15;;;;;;;;;8.25;8.00;;;;;13.77;55.97;101704.16;2120593;27;47856;-60
2022/03/15 03:16:16;;;;;;;;;8.75;8.25;;;;;13.77;56.07;101700.63;2120479;27;47595;-62
2022/03/15 03:17:17;;;;;;;;;6.33;6.33;;;;;13.76;56.11;101696.19;2120745;27;48411;-61
2022/03/15 03:18:17;;;;;;;;;6.50;6.50;;;;;13.75;56.11;101706.00;2120812;27;47896;-62
2022/03/15 03:19:19;;;;;;;;;8.00;7.00;;;;;13.74;56.40;101703.34;2120581;27;47728;-62
2022/03/15 03:20:21;;;;;;;;;6.50;6.50;;;;;13.72;56.45;101703.38;2120666;27;48026;-61
2022/03/15 03:21:23;;;;;;;;;7.00;7.00;;;;;13.72;56.88;101702.47;2120763;27;48078;-61
2022/03/15 03:22:23;;;;;;;;;7.75;7.75;;;;;13.71;56.81;101706.06;2120671;27;48216;-60
2022/03/15 03:23:24;;;;;;;;;6.00;6.00;;;;;13.70;56.59;101705.16;2120586;27;47575;-61
2022/03/15 03:24:24;;;;;;;;;8.00;7.67;;;;;13.71;56.57;101698.06;2120775;27;47925;-61
2022/03/15 03:25:26;;;;;;;;;5.00;4.67;;;;;13.72;56.91;101705.13;2111724;27;47229;-62
2022/03/15 03:26:27;;;;;;;;;7.00;7.00;;;;;13.72;56.80;101708.72;2111762;27;47890;-62
2022/03/15 03:27:27;;;;;;;;;8.00;7.33;;;;;13.72;56.78;101700.72;2120597;27;47426;-61
2022/03/15 03:28:36;;;;;;;;;10.00;9.00;;;;;13.73;57.06;101704.25;2120921;27;47221;-62
2022/03/15 03:29:37;;;;;;;;;8.00;7.50;;;;;13.72;57.02;101695.38;2120784;27;47784;-62
2022/03/15 03:30:37;;;;;;;;;8.25;8.25;;;;;13.71;57.06;101696.25;2120672;27;46819;-62
2022/03/15 03:31:41;;;;;;;;;9.00;9.00;;;;;13.70;57.26;101699.84;2120837;27;47933;-62
2022/03/15 03:32:41;;;;;;;;;9.50;8.25;;;;;13.70;57.48;101699.84;2120841;27;47599;-59
2022/03/15 03:33:42;;;;;;;;;6.33;6.33;;;;;13.68;57.49;101699.00;2120745;27;47607;-61
2022/03/15 03:34:42;;;;;;;;;6.67;6.67;;;;;13.68;57.50;101690.13;2120720;27;47887;-62
2022/03/15 03:35:43;;;;;;;;;9.00;7.33;;;;;13.68;57.58;101696.31;2120689;27;47256;-62
2022/03/15 03:36:43;;;;;;;;;8.00;8.00;;;;;13.69;57.69;101694.53;2120682;27;47621;-61
2022/03/15 03:37:44;;;;;;;;;7.00;7.00;;;;;13.69;57.69;101695.41;2120439;27;46692;-63
2022/03/15 03:38:44;;;;;;;;;8.00;8.00;;;;;13.69;57.92;101695.41;2120569;27;47559;-63
2022/03/15 03:39:44;;;;;;;;;8.00;8.00;;;;;13.69;58.13;101691.88;2120589;27;47534;-61
2022/03/15 03:40:45;;;;;;;;;8.33;7.33;;;;;13.68;58.22;101696.31;2102334;28;47318;-59
2022/03/15 03:41:45;;;;;;;;;8.00;8.00;;;;;13.69;58.17;101697.22;2107990;27;47164;-60
2022/03/15 03:42:46;;;;;;;;;8.33;8.33;;;;;13.69;58.14;101695.41;2121632;27;47804;-61
2022/03/15 03:43:46;;;;;;;;;11.67;8.33;;;;;13.69;58.22;101703.41;2120786;27;47498;-59
2022/03/15 03:44:46;;;;;;;;;8.00;8.00;;;;;13.70;58.51;101701.63;2120536;27;47515;-61
2022/03/15 03:45:47;;;;;;;;;7.33;7.33;;;;;13.70;58.27;101693.63;2120695;27;47651;-61
2022/03/15 03:46:47;;;;;;;;;7.33;6.67;;;;;13.70;58.48;101694.50;2120329;27;47603;-63
2022/03/15 03:47:48;;;;;;;;;9.33;6.67;;;;;13.70;58.63;101683.84;2102322;28;47461;-62
2022/03/15 03:48:50;;;;;;;;;7.67;7.67;;;;;13.71;58.51;101692.72;2106561;27;47958;-61
2022/03/15 03:49:51;;;;;;;;;11.00;10.00;;;;;13.70;58.68;101691.84;2129008;27;47277;-61
2022/03/15 03:50:53;;;;;;;;;7.25;7.25;;;;;13.69;58.71;101690.06;2121000;27;47172;-61
2022/03/15 03:51:53;;;;;;;;;8.25;8.25;;;;;13.67;58.92;101694.56;2120457;27;47666;-62
2022/03/15 03:52:54;;;;;;;;;6.67;6.67;;;;;13.65;58.97;101683.06;2120769;27;48217;-61
2022/03/15 03:53:54;;;;;;;;;9.00;7.67;;;;;13.66;59.27;101691.94;2120584;27;47660;-60
2022/03/15 03:54:55;;;;;;;;;8.33;8.33;;;;;13.65;59.27;101691.06;2120332;27;47466;-63
2022/03/15 03:55:55;;;;;;;;;9.67;9.67;;;;;13.63;59.26;101682.22;2120331;27;46456;-61
2022/03/15 03:56:56;;;;;;;;;11.00;10.33;;;;;13.62;59.14;101684.91;2120604;27;47716;-62
2022/03/15 03:57:56;;;;;;;;;8.33;8.33;;;;;13.62;59.34;101691.13;2120606;27;47945;-60
2022/03/15 03:58:57;;;;;;;;;8.67;7.67;;;;;13.61;59.38;101686.69;2111212;27;47713;-61
2022/03/15 03:59:57;;;;;;;;;8.00;8.00;;;;;13.61;59.65;101684.03;2111565;27;47297;-61
2022/03/15 04:00:57;;;;;;;;;7.00;7.00;;;;;13.62;59.67;101676.91;2111612;27;47394;-61
2022/03/15 04:01:58;;;;;;;;;7.67;7.67;;;;;13.62;59.67;101680.47;2117975;27;47433;-61
2022/03/15 04:03:00;;;;;;;;;8.33;8.33;;;;;13.62;59.78;101677.78;2119884;27;47640;-61
2022/03/15 04:04:05;;;;;;;;;8.50;8.50;;;;;13.63;59.77;101678.66;2120269;27;47667;-61
2022/03/15 04:05:06;;;;;;;;;6.25;6.25;;;;;13.63;59.76;101678.66;2129460;27;47831;-60
2022/03/15 04:06:08;;;;;;;;;9.00;8.50;;;;;13.62;59.72;101680.47;2130319;27;48581;-61
2022/03/15 04:07:10;;;;;;;;;10.00;9.00;;;;;13.62;59.95;101680.47;2130370;27;47404;-61
2022/03/15 04:08:13;;;;;;;;;8.75;8.75;;;;;13.62;60.08;101671.56;2130329;27;47970;-61
2022/03/15 04:09:13;;;;;;;;;8.25;7.75;;;;;13.62;59.99;101674.25;2130419;27;47357;-62
2022/03/15 04:10:15;;;;;;;;;9.00;9.00;;;;;13.61;60.29;101665.38;2130440;27;47506;-60
2022/03/15 04:11:16;;;;;;;;;11.00;11.00;;;;;13.60;60.38;101679.59;2130399;27;48220;-62
2022/03/15 04:12:19;;;;;;;;;9.00;9.00;;;;;13.60;60.47;101670.72;2124106;27;48092;-62
2022/03/15 04:13:20;;;;;;;;;8.00;8.00;;;;;13.59;60.36;101675.16;2121791;27;47751;-63
2022/03/15 04:14:20;;;;;;;;;8.00;8.00;;;;;13.58;60.67;101669.84;2122049;27;47987;-61
2022/03/15 04:15:24;;;;;;;;;9.00;9.00;;;;;13.56;60.65;101677.88;2122145;27;47557;-60
2022/03/15 04:16:26;;;;;;;;;10.00;8.75;;;;;13.53;60.60;101672.63;2121889;27;48055;-61
2022/03/15 04:17:26;;;;;;;;;9.00;9.00;;;;;13.53;60.91;101675.28;2112857;27;47619;-61
2022/03/15 04:18:27;;;;;;;;;8.00;8.00;;;;;13.51;60.65;101669.09;2112871;27;47846;-60
2022/03/15 04:19:27;;;;;;;;;9.00;9.00;;;;;13.51;60.90;101672.66;2125263;27;47956;-59
2022/03/15 04:20:28;;;;;;;;;9.33;9.33;;;;;13.52;60.77;101673.53;2121936;27;48027;-62
2022/03/15 04:21:28;;;;;;;;;10.00;9.00;;;;;13.52;60.79;101669.06;2103518;27;47505;-62
2022/03/15 04:22:28;;;;;;;;;7.00;7.00;;;;;13.52;61.09;101670.88;2103843;28;47525;-62
2022/03/15 04:23:29;;;;;;;;;10.33;7.67;;;;;13.50;60.99;101662.91;2121734;27;47568;-61
2022/03/15 04:24:31;;;;;;;;;12.33;10.00;;;;;13.51;61.16;101667.31;2122201;27;47585;-62
2022/03/15 04:25:31;;;;;;;;;9.25;8.00;;;;;13.51;61.26;101664.66;2121994;27;48089;-61
2022/03/15 04:26:32;;;;;;;;;9.00;8.00;;;;;13.50;61.22;101662.00;2121848;27;47716;-61
2022/03/15 04:27:33;;;;;;;;;9.33;9.33;;;;;13.50;61.40;101665.56;2121938;27;47218;-61
2022/03/15 04:28:33;;;;;;;;;10.00;8.33;;;;;13.50;61.57;101662.00;2125117;27;48048;-61
2022/03/15 04:29:34;;;;;;;;;10.00;8.00;;;;;13.49;61.71;101660.25;2123085;27;47525;-62
2022/03/15 04:30:34;;;;;;;;;6.00;6.00;;;;;13.50;61.36;101662.91;2130582;27;47470;-60
2022/03/15 04:31:34;;;;;;;;;11.00;9.33;;;;;13.51;61.34;101663.78;2130285;27;47498;-61
2022/03/15 04:32:35;;;;;;;;;10.00;10.00;;;;;13.50;61.72;101668.22;2130675;27;46625;-61
2022/03/15 04:33:35;;;;;;;;;8.00;8.00;;;;;13.49;61.52;101669.13;2130396;27;48303;-61
2022/03/15 04:34:36;;;;;;;;;8.00;7.00;;;;;13.49;61.61;101665.59;2130488;27;47746;-61
2022/03/15 04:35:36;;;;;;;;;9.67;9.67;;;;;13.48;61.56;101670.03;2130323;27;47754;-61
2022/03/15 04:36:37;;;;;;;;;11.00;11.00;;;;;13.49;61.62;101665.59;2130328;27;47644;-63
2022/03/15 04:37:37;;;;;;;;;7.00;7.00;;;;;13.51;61.66;101667.31;2130333;27;47943;-61
2022/03/15 04:38:38;;;;;;;;;7.67;7.67;;;;;13.51;61.78;101661.09;2130399;27;47596;-61
2022/03/15 04:39:38;;;;;;;;;9.67;9.33;;;;;13.51;61.64;101661.97;2130330;27;47845;-61
2022/03/15 04:40:39;;;;;;;;;8.33;8.33;;;;;13.52;61.71;101660.19;2130257;27;47608;-61
2022/03/15 04:41:39;;;;;;;;;11.00;9.33;;;;;13.54;61.95;101658.38;2096973;28;47626;-62
2022/03/15 04:42:40;;;;;;;;;8.33;8.33;;;;;13.52;61.75;101665.53;2103436;28;47571;-62